createdAt,value
2022-11-20T00:01:13.648Z,1.90
2022-11-20T00:04:00.664Z,1.80
2022-11-20T00:06:48.088Z,1.90
2022-11-20T00:09:35.071Z,1.80
2022-11-20T00:12:22.073Z,1.70
2022-11-20T00:15:09.839Z,1.70
2022-11-20T00:17:57.751Z,1.80
2022-11-20T00:20:45.360Z,1.60
2022-11-20T00:23:32.933Z,1.50
2022-11-20T00:26:20.582Z,1.50
2022-11-20T00:29:10.529Z,1.70
2022-11-20T00:31:59.195Z,1.70
2022-11-20T00:34:46.556Z,1.70
2022-11-20T00:37:33.623Z,1.60
2022-11-20T00:40:21.263Z,1.60
2022-11-20T00:43:08.756Z,1.70
2022-11-20T00:46:03.308Z,1.60
2022-11-20T00:48:51.027Z,1.60
2022-11-20T00:51:39.011Z,1.60
2022-11-20T00:54:26.126Z,1.50
2022-11-20T00:57:13.753Z,1.50
2022-11-20T01:00:01.216Z,1.60
2022-11-20T01:02:48.892Z,1.60
2022-11-20T01:05:37.008Z,1.70
2022-11-20T01:08:24.904Z,1.50
2022-11-20T01:11:13.666Z,1.40
2022-11-20T01:17:08.356Z,1.50
2022-11-20T01:22:58.776Z,1.40
2022-11-20T01:25:53.158Z,1.40
2022-11-20T01:28:50.624Z,1.50
2022-11-20T01:31:43.985Z,1.50
2022-11-20T01:34:39.302Z,1.50
2022-11-20T01:37:42.268Z,1.40
2022-11-20T01:40:38.332Z,1.40
2022-11-20T01:43:34.955Z,1.40
2022-11-20T01:46:29.453Z,1.30
2022-11-20T01:49:19.966Z,1.40
2022-11-20T01:52:21.816Z,1.40
2022-11-20T01:55:30.028Z,1.40
2022-11-20T01:58:22.840Z,1.30
2022-11-20T02:01:14.988Z,1.40
2022-11-20T02:04:04.316Z,1.30
2022-11-20T02:07:10.290Z,1.30
2022-11-20T02:09:59.344Z,1.20
2022-11-20T02:13:08.288Z,1.10
2022-11-20T02:15:59.030Z,1.10
2022-11-20T02:18:48.025Z,1.20
2022-11-20T02:21:45.086Z,1.20
2022-11-20T02:24:34.671Z,1.10
2022-11-20T02:27:27.152Z,1.20
2022-11-20T02:30:23.405Z,1.10
2022-11-20T02:33:29.671Z,1.00
2022-11-20T02:36:25.913Z,1.10
2022-11-20T02:39:30.735Z,1.20
2022-11-20T02:42:29.963Z,1.10
2022-11-20T02:45:25.718Z,1.00
2022-11-20T02:51:51.665Z,1.10
2022-11-20T02:54:42.480Z,1.10
2022-11-20T02:57:40.238Z,1.10
2022-11-20T03:00:36.027Z,1.20
2022-11-20T03:03:29.604Z,1.00
2022-11-20T03:06:19.234Z,1.00
2022-11-20T03:09:13.473Z,1.00
2022-11-20T03:12:05.619Z,1.00
2022-11-20T03:14:53.618Z,1.00
2022-11-20T04:19:23.513Z,0.70
2022-11-20T04:22:17.428Z,0.70
2022-11-20T04:25:05.124Z,0.70
2022-11-20T04:27:55.662Z,0.80
2022-11-20T04:30:43.250Z,0.70
2022-11-20T04:33:34.778Z,0.70
2022-11-20T04:36:25.771Z,0.70
2022-11-20T04:39:16.886Z,0.70
2022-11-20T04:42:22.822Z,0.80
2022-11-20T04:45:23.867Z,1.00
2022-11-20T04:48:18.700Z,0.80
2022-11-20T04:51:10.549Z,0.70
2022-11-20T04:53:59.218Z,0.60
2022-11-20T04:56:55.615Z,0.60
2022-11-20T04:59:53.380Z,0.60
2022-11-20T05:02:50.982Z,0.50
2022-11-20T05:05:46.033Z,0.60
2022-11-20T05:08:39.762Z,0.50
2022-11-20T05:11:42.783Z,0.60
2022-11-20T05:14:43.479Z,0.60
2022-11-20T05:17:38.315Z,0.50
2022-11-20T05:20:59.434Z,0.40
2022-11-20T05:23:57.043Z,0.50
2022-11-20T05:26:49.716Z,0.50
2022-11-20T05:33:28.404Z,0.50
2022-11-20T05:36:32.874Z,0.40
2022-11-20T05:39:20.845Z,0.60
2022-11-20T05:42:28.377Z,0.60
2022-11-20T05:45:16.653Z,0.50
2022-11-20T05:48:09.815Z,0.50
2022-11-20T05:51:13.274Z,0.50
2022-11-20T05:54:18.722Z,0.40
2022-11-20T05:57:09.875Z,0.50
2022-11-20T06:00:02.202Z,0.50
2022-11-20T06:02:55.160Z,0.50
2022-11-20T06:05:47.769Z,0.60
2022-11-20T06:14:57.426Z,0.60
2022-11-20T09:18:44.711Z,2.00
2022-11-20T09:21:33.797Z,2.20
2022-11-20T09:24:24.344Z,2.10
2022-11-20T09:27:12.272Z,2.30
2022-11-20T09:30:06.361Z,2.40
2022-11-20T09:32:56.000Z,2.50
2022-11-20T09:35:48.045Z,2.60
2022-11-20T09:38:37.616Z,2.50
2022-11-20T09:42:05.077Z,2.50
2022-11-20T09:49:30.693Z,2.70
2022-11-20T09:52:35.843Z,2.70
2022-11-20T09:55:28.329Z,2.70
2022-11-20T09:58:30.523Z,2.70
2022-11-20T10:01:22.800Z,3.00
2022-11-20T10:04:22.686Z,3.10
2022-11-20T10:07:33.112Z,3.00
2022-11-20T10:10:32.536Z,3.10
2022-11-20T10:13:28.536Z,3.00
2022-11-20T10:16:40.776Z,3.20
2022-11-20T10:19:39.873Z,3.10
2022-11-20T10:22:53.707Z,3.10
2022-11-20T10:26:17.469Z,3.00
2022-11-20T10:29:14.182Z,3.10
2022-11-20T10:32:06.987Z,3.10
2022-11-20T10:35:01.860Z,3.10
2022-11-20T10:37:58.293Z,3.20
2022-11-20T10:41:28.167Z,3.10
2022-11-20T10:44:56.266Z,3.10
2022-11-20T10:48:16.077Z,3.20
2022-11-20T10:51:19.060Z,3.10
2022-11-20T10:54:41.325Z,3.00
2022-11-20T10:57:44.483Z,3.20
2022-11-20T11:00:45.191Z,3.20
2022-11-20T11:03:47.003Z,3.40
2022-11-20T11:06:45.070Z,3.30
2022-11-20T11:09:37.080Z,3.50
2022-11-20T11:12:37.112Z,3.30
2022-11-20T11:51:11.716Z,3.50
2022-11-20T11:54:00.710Z,3.30
2022-11-20T11:56:49.232Z,3.30
2022-11-20T12:25:36.942Z,3.40
2022-11-20T12:28:24.529Z,3.40
2022-11-20T12:31:12.102Z,3.40
2022-11-20T12:34:09.647Z,3.70
2022-11-20T12:36:59.947Z,3.40
2022-11-20T12:39:56.191Z,3.50
2022-11-20T12:43:06.060Z,3.50
2022-11-20T12:45:58.541Z,3.40
2022-11-20T12:48:49.088Z,3.40
2022-11-20T12:51:45.927Z,3.50
2022-11-20T12:54:36.774Z,3.50
2022-11-20T12:57:50.759Z,3.40
2022-11-20T13:00:40.828Z,3.10
2022-11-20T13:03:48.370Z,3.20
2022-11-20T13:06:36.077Z,3.40
2022-11-20T13:09:24.736Z,3.60
2022-11-20T13:12:16.940Z,3.50
2022-11-20T13:15:04.496Z,3.60
2022-11-20T13:18:02.370Z,3.70
2022-11-20T13:20:50.564Z,3.80
2022-11-20T13:23:37.680Z,3.60
2022-11-20T13:26:25.017Z,3.70
2022-11-20T13:29:13.400Z,3.50
2022-11-20T13:53:34.515Z,3.50
2022-11-20T13:56:36.046Z,3.50
2022-11-20T13:59:39.557Z,3.30
2022-11-20T14:02:28.494Z,3.60
2022-11-20T14:05:20.002Z,3.50
2022-11-20T14:08:12.438Z,3.60
2022-11-20T14:11:17.857Z,3.70
2022-11-20T14:14:14.052Z,3.50
2022-11-20T14:17:22.333Z,3.60
2022-11-20T14:20:16.074Z,3.50
2022-11-20T14:23:04.303Z,3.70
2022-11-20T14:25:52.123Z,3.80
2022-11-20T14:28:40.826Z,4.00
2022-11-20T14:31:28.316Z,3.60
2022-11-20T14:34:19.956Z,3.80
2022-11-20T14:37:16.578Z,3.70
2022-11-20T14:40:06.597Z,3.80
2022-11-20T14:42:54.581Z,3.90
2022-11-20T14:45:41.837Z,3.80
2022-11-20T14:48:34.956Z,3.90
2022-11-20T14:51:33.016Z,3.70
2022-11-20T14:54:26.487Z,3.70
2022-11-20T14:57:21.985Z,3.80
2022-11-20T15:00:15.063Z,4.00
2022-11-20T15:03:02.116Z,3.90
2022-11-20T15:05:50.308Z,3.80
2022-11-20T15:08:37.889Z,3.70
2022-11-20T15:11:35.551Z,3.60
2022-11-20T15:14:23.885Z,3.90
2022-11-20T15:17:12.484Z,3.70
2022-11-20T15:20:00.788Z,3.90
2022-11-20T15:22:48.866Z,3.80
2022-11-20T15:25:38.554Z,3.80
2022-11-20T15:28:31.428Z,3.80
2022-11-20T15:52:42.025Z,3.90
2022-11-20T15:58:32.478Z,4.00
2022-11-20T16:01:21.709Z,3.90
2022-11-20T16:04:19.269Z,3.80
2022-11-20T16:07:06.787Z,3.70
2022-11-20T16:09:56.367Z,3.80
2022-11-20T16:13:02.209Z,3.80
2022-11-20T16:15:56.136Z,3.80
2022-11-20T16:18:43.270Z,4.00
2022-11-20T16:21:32.512Z,4.00
2022-11-20T16:24:36.290Z,4.00
2022-11-20T16:27:34.095Z,3.90
2022-11-20T16:30:21.911Z,4.00
2022-11-20T16:33:13.577Z,3.80
2022-11-20T16:36:21.731Z,3.90
2022-11-20T16:39:09.179Z,4.00
2022-11-20T16:41:56.658Z,3.90
2022-11-20T16:44:46.386Z,3.90
2022-11-20T16:47:34.935Z,3.90
2022-11-20T16:50:22.474Z,3.90
2022-11-20T16:53:10.332Z,3.90
2022-11-20T16:55:57.505Z,3.90
2022-11-20T16:58:45.556Z,3.90
2022-11-20T17:01:34.296Z,3.80
2022-11-20T17:04:22.180Z,3.90
2022-11-20T17:07:10.839Z,4.10
2022-11-20T17:09:58.131Z,4.10
2022-11-20T17:12:45.582Z,4.00
2022-11-20T17:15:33.213Z,4.10
2022-11-20T17:18:20.347Z,4.00
2022-11-20T17:21:07.996Z,4.00
2022-11-20T17:23:55.036Z,4.10
2022-11-20T17:26:43.297Z,4.10
2022-11-20T17:29:30.864Z,4.20
2022-11-20T17:32:18.726Z,4.10
2022-11-20T17:35:06.507Z,4.20
2022-11-20T17:37:53.964Z,4.30
2022-11-20T17:40:41.380Z,4.30
2022-11-20T17:43:34.317Z,4.30
2022-11-20T17:46:33.490Z,4.30
2022-11-20T17:49:23.095Z,4.20
2022-11-20T17:52:11.834Z,4.20
2022-11-20T18:01:19.659Z,4.40
2022-11-20T18:04:07.456Z,4.30
2022-11-20T18:06:54.856Z,4.30
2022-11-20T18:09:41.946Z,4.30
2022-11-20T18:12:28.977Z,4.40
2022-11-20T18:15:16.476Z,4.40
2022-11-20T18:18:04.228Z,4.30
2022-11-20T18:20:53.442Z,4.20
2022-11-20T18:23:41.083Z,4.50
2022-11-20T18:26:29.208Z,4.50
2022-11-20T18:29:17.563Z,4.30
2022-11-20T18:32:05.173Z,4.30
2022-11-20T18:34:52.376Z,4.40
2022-11-20T18:37:39.850Z,4.30
2022-11-20T18:40:26.947Z,4.30
2022-11-20T18:43:33.246Z,4.10
2022-11-20T18:46:21.992Z,4.30
2022-11-20T18:49:09.402Z,4.30
2022-11-20T18:51:56.988Z,4.50
2022-11-20T18:54:44.148Z,4.40
2022-11-20T18:57:31.812Z,4.20
2022-11-20T19:00:18.897Z,4.20
2022-11-20T19:03:06.440Z,4.30
2022-11-20T19:05:53.913Z,4.30
2022-11-20T19:08:41.546Z,4.20
2022-11-20T19:11:28.939Z,4.50
2022-11-20T19:14:16.906Z,4.40
2022-11-20T19:17:04.783Z,4.30
2022-11-20T19:19:54.842Z,4.30
2022-11-20T19:22:42.308Z,4.40
2022-11-20T19:25:35.172Z,4.60
2022-11-20T19:28:24.878Z,4.50
2022-11-20T19:31:14.056Z,4.60
2022-11-20T19:34:02.611Z,4.50
2022-11-20T19:36:50.048Z,4.60
2022-11-20T19:39:37.752Z,4.40
2022-11-20T19:42:25.434Z,4.30
2022-11-20T19:45:12.825Z,4.50
2022-11-20T19:57:09.387Z,4.30
2022-11-20T19:59:56.813Z,4.30
2022-11-20T20:02:43.976Z,4.40
2022-11-20T20:05:31.424Z,4.40
2022-11-20T20:08:18.496Z,4.50
2022-11-20T20:11:17.393Z,4.40
2022-11-20T20:14:06.116Z,4.40
2022-11-20T20:16:53.327Z,4.40
2022-11-20T20:19:40.377Z,4.40
2022-11-20T20:22:28.288Z,4.50
2022-11-20T20:25:15.424Z,4.50
2022-11-20T20:28:03.292Z,4.60
2022-11-20T20:30:50.360Z,4.50
2022-11-20T20:33:38.814Z,4.50
2022-11-20T20:36:26.664Z,4.70
2022-11-20T20:39:14.288Z,4.70
2022-11-20T20:42:02.028Z,4.70
2022-11-20T20:45:07.610Z,4.60
2022-11-20T20:47:56.125Z,4.70
2022-11-20T20:50:53.164Z,4.60
2022-11-20T20:53:40.590Z,4.70
2022-11-20T20:56:27.785Z,4.70
2022-11-20T20:59:15.634Z,4.70
2022-11-20T21:02:03.598Z,4.60
2022-11-20T21:04:50.757Z,4.70
2022-11-20T21:07:58.304Z,4.70
2022-11-20T21:10:45.794Z,4.90
2022-11-20T21:13:33.471Z,4.80
2022-11-20T21:16:22.458Z,4.70
2022-11-20T21:19:10.796Z,4.80
2022-11-20T21:22:04.438Z,4.70
2022-11-20T21:24:51.600Z,4.70
2022-11-20T21:27:39.065Z,4.80
2022-11-20T21:30:26.523Z,4.90
2022-11-20T21:33:14.259Z,4.80
2022-11-20T21:36:01.784Z,4.80
2022-11-20T21:38:50.615Z,4.90
2022-11-20T21:41:38.438Z,4.80
2022-11-20T21:44:33.325Z,4.60
2022-11-20T21:47:21.203Z,4.60
2022-11-20T21:50:08.864Z,4.80
2022-11-20T21:52:56.568Z,4.90
2022-11-20T21:55:52.631Z,4.80
2022-11-20T21:58:41.384Z,4.80
2022-11-20T22:01:30.085Z,4.60
2022-11-20T22:04:17.271Z,4.70
2022-11-20T22:07:08.303Z,4.60
2022-11-20T22:09:55.743Z,4.70
2022-11-20T22:12:43.679Z,4.80
2022-11-20T22:15:58.883Z,4.80
2022-11-20T22:18:42.049Z,4.80
2022-11-20T22:21:30.157Z,4.80
2022-11-20T22:24:18.560Z,4.90
2022-11-20T22:27:05.595Z,4.70
2022-11-20T22:29:53.291Z,4.90
2022-11-20T22:32:41.248Z,4.80
2022-11-20T22:35:29.916Z,4.80
2022-11-20T22:38:16.909Z,5.00
2022-11-20T22:41:15.222Z,4.90
2022-11-20T22:44:04.251Z,5.00
2022-11-20T22:46:51.423Z,5.00
2022-11-20T22:49:39.314Z,4.90
2022-11-20T22:52:26.744Z,4.80
2022-11-20T22:55:16.434Z,4.80
2022-11-20T22:58:04.143Z,4.70
2022-11-20T23:00:52.072Z,4.50
2022-11-20T23:03:40.601Z,4.60
2022-11-20T23:06:28.331Z,4.50
2022-11-20T23:09:17.463Z,4.60
2022-11-20T23:12:04.712Z,4.70
2022-11-20T23:14:52.640Z,4.60
2022-11-20T23:32:56.287Z,4.50
2022-11-20T23:35:46.730Z,4.80
2022-11-20T23:38:34.665Z,4.70
2022-11-20T23:41:22.439Z,4.70
2022-11-20T23:44:10.464Z,4.80
2022-11-20T23:46:57.492Z,4.80
2022-11-20T23:49:44.831Z,4.80
2022-11-20T23:52:32.243Z,4.90
2022-11-20T23:55:19.696Z,4.80
2022-11-20T23:58:07.474Z,4.80
